createdAt,value
2024-04-14T00:00:42.767Z,95584.00
2024-04-14T00:01:42.900Z,95585.00
2024-04-14T00:02:42.824Z,95587.00
2024-04-14T00:03:43.142Z,95587.00
2024-04-14T00:04:43.053Z,95584.00
2024-04-14T00:05:42.939Z,95584.00
2024-04-14T00:06:43.005Z,95584.00
2024-04-14T00:07:43.005Z,95586.00
2024-04-14T00:08:43.134Z,95588.00
2024-04-14T00:09:43.123Z,95586.00
2024-04-14T00:10:43.125Z,95585.00
2024-04-14T00:11:43.162Z,95583.00
2024-04-14T00:12:43.244Z,95582.00
2024-04-14T00:13:43.250Z,95583.00
2024-04-14T00:14:43.269Z,95583.00
2024-04-14T00:15:43.342Z,95581.00
2024-04-14T00:16:43.344Z,95580.00
2024-04-14T00:17:43.414Z,95581.00
2024-04-14T00:18:43.574Z,95581.00
2024-04-14T00:19:43.456Z,95581.00
2024-04-14T00:20:43.518Z,95581.00
2024-04-14T00:21:43.578Z,95578.00
2024-04-14T00:22:43.587Z,95578.00
2024-04-14T00:23:43.625Z,95577.00
2024-04-14T00:24:43.714Z,95577.00
2024-04-14T00:25:43.705Z,95574.00
2024-04-14T00:26:43.735Z,95573.00
2024-04-14T00:27:43.817Z,95571.00
2024-04-14T00:28:43.881Z,95573.00
2024-04-14T00:29:44.600Z,95569.00
2024-04-14T00:30:43.993Z,95570.00
2024-04-14T00:31:43.979Z,95569.00
2024-04-14T00:32:44.126Z,95570.00
2024-04-14T00:33:44.149Z,95570.00
2024-04-14T00:34:44.133Z,95570.00
2024-04-14T00:35:44.153Z,95568.00
2024-04-14T00:36:44.294Z,95566.00
2024-04-14T00:37:44.242Z,95566.00
2024-04-14T00:38:44.320Z,95566.00
2024-04-14T00:39:44.347Z,95565.00
2024-04-14T00:40:44.383Z,95563.00
2024-04-14T00:41:44.428Z,95562.00
2024-04-14T00:42:44.561Z,95560.00
2024-04-14T00:43:44.528Z,95561.00
2024-04-14T00:44:44.579Z,95561.00
2024-04-14T00:45:44.654Z,95562.00
2024-04-14T00:46:44.667Z,95558.00
2024-04-14T00:47:44.823Z,95558.00
2024-04-14T00:48:44.880Z,95557.00
2024-04-14T00:49:44.841Z,95558.00
2024-04-14T00:50:44.886Z,95561.00
2024-04-14T00:51:44.942Z,95560.00
2024-04-14T00:52:44.979Z,95563.00
2024-04-14T00:53:45.051Z,95560.00
2024-04-14T00:54:45.117Z,95561.00
2024-04-14T00:55:45.147Z,95562.00
2024-04-14T00:56:45.166Z,95561.00
2024-04-14T00:57:45.251Z,95559.00
2024-04-14T00:58:45.277Z,95557.00
2024-04-14T00:59:45.322Z,95560.00
2024-04-14T01:00:45.441Z,95557.00
2024-04-14T01:01:45.497Z,95555.00
2024-04-14T01:02:45.482Z,95555.00
2024-04-14T01:03:45.559Z,95553.00
2024-04-14T01:04:45.662Z,95553.00
2024-04-14T01:05:45.601Z,95552.00
2024-04-14T01:06:45.630Z,95552.00
2024-04-14T01:07:45.691Z,95553.00
2024-04-14T01:08:45.759Z,95553.00
2024-04-14T01:09:45.779Z,95555.00
2024-04-14T01:10:45.849Z,95552.00
2024-04-14T01:11:45.903Z,95551.00
2024-04-14T01:12:45.928Z,95550.00
2024-04-14T01:13:45.991Z,95552.00
2024-04-14T01:14:45.991Z,95551.00
2024-04-14T01:15:46.046Z,95547.00
2024-04-14T01:16:46.090Z,95549.00
2024-04-14T01:17:46.300Z,95549.00
2024-04-14T01:18:46.212Z,95549.00
2024-04-14T01:19:46.212Z,95550.00
2024-04-14T01:20:46.271Z,95549.00
2024-04-14T01:21:46.353Z,95549.00
2024-04-14T01:22:46.374Z,95549.00
2024-04-14T01:23:46.403Z,95548.00
2024-04-14T01:24:46.506Z,95548.00
2024-04-14T01:25:46.506Z,95550.00
2024-04-14T01:26:46.551Z,95546.00
2024-04-14T01:27:46.593Z,95544.00
2024-04-14T01:28:46.638Z,95549.00
2024-04-14T01:29:46.699Z,95548.00
2024-04-14T01:30:46.753Z,95549.00
2024-04-14T01:31:46.793Z,95547.00
2024-04-14T01:32:46.831Z,95549.00
2024-04-14T01:33:46.894Z,95550.00
2024-04-14T01:34:46.910Z,95549.00
2024-04-14T01:35:46.960Z,95550.00
2024-04-14T01:36:47.086Z,95547.00
2024-04-14T01:37:47.061Z,95550.00
2024-04-14T01:38:47.132Z,95550.00
2024-04-14T01:39:47.165Z,95548.00
2024-04-14T01:40:47.184Z,95547.00
2024-04-14T01:41:47.226Z,95548.00
2024-04-14T01:42:47.349Z,95547.00
2024-04-14T01:43:47.333Z,95547.00
2024-04-14T01:44:47.413Z,95545.00
2024-04-14T01:45:47.497Z,95544.00
2024-04-14T01:46:47.510Z,95544.00
2024-04-14T01:47:47.613Z,95542.00
2024-04-14T01:48:47.674Z,95542.00
2024-04-14T01:49:47.659Z,95543.00
2024-04-14T01:50:47.726Z,95543.00
2024-04-14T01:51:47.793Z,95539.00
2024-04-14T01:52:47.802Z,95539.00
2024-04-14T01:53:47.863Z,95538.00
2024-04-14T01:54:47.934Z,95539.00
2024-04-14T01:55:47.939Z,95543.00
2024-04-14T01:56:47.971Z,95539.00
2024-04-14T01:57:48.059Z,95540.00
2024-04-14T01:58:48.068Z,95541.00
2024-04-14T01:59:48.100Z,95541.00
2024-04-14T02:00:48.225Z,95541.00
2024-04-14T02:01:48.243Z,95542.00
2024-04-14T02:02:48.335Z,95544.00
2024-04-14T02:03:48.417Z,95543.00
2024-04-14T02:04:48.442Z,95544.00
2024-04-14T02:05:48.400Z,95546.00
2024-04-14T02:06:48.482Z,95546.00
2024-04-14T02:07:48.517Z,95545.00
2024-04-14T02:08:48.578Z,95544.00
2024-04-14T02:09:48.658Z,95545.00
2024-04-14T02:10:48.711Z,95545.00
2024-04-14T02:11:48.708Z,95543.00
2024-04-14T02:12:48.847Z,95541.00
2024-04-14T02:13:48.810Z,95542.00
2024-04-14T02:14:48.874Z,95542.00
2024-04-14T02:15:48.984Z,95543.00
2024-04-14T02:16:48.966Z,95541.00
2024-04-14T02:17:49.238Z,95540.00
2024-04-14T02:18:49.093Z,95539.00
2024-04-14T02:19:49.128Z,95538.00
2024-04-14T02:20:49.152Z,95536.00
2024-04-14T02:21:49.249Z,95533.00
2024-04-14T02:22:49.276Z,95531.00
2024-04-14T02:23:49.307Z,95529.00
2024-04-14T02:24:49.402Z,95528.00
2024-04-14T02:25:49.404Z,95527.00
2024-04-14T02:26:49.470Z,95527.00
2024-04-14T02:27:49.541Z,95528.00
2024-04-14T02:28:49.566Z,95529.00
2024-04-14T02:29:49.624Z,95528.00
2024-04-14T02:30:49.703Z,95531.00
2024-04-14T02:31:49.737Z,95531.00
2024-04-14T02:32:49.787Z,95530.00
2024-04-14T02:33:49.889Z,95529.00
2024-04-14T02:34:49.883Z,95529.00
2024-04-14T02:35:49.922Z,95529.00
2024-04-14T02:36:50.038Z,95529.00
2024-04-14T02:37:50.038Z,95530.00
2024-04-14T02:38:50.114Z,95530.00
2024-04-14T02:39:50.340Z,95528.00
2024-04-14T02:40:50.178Z,95528.00
2024-04-14T02:41:50.253Z,95523.00
2024-04-14T02:42:50.396Z,95523.00
2024-04-14T02:43:50.698Z,95524.00
2024-04-14T02:44:50.420Z,95523.00
2024-04-14T02:45:50.536Z,95525.00
2024-04-14T02:46:50.509Z,95526.00
2024-04-14T02:47:50.662Z,95526.00
2024-04-14T02:48:50.828Z,95525.00
2024-04-14T02:49:50.673Z,95523.00
2024-04-14T02:50:50.733Z,95523.00
2024-04-14T02:51:50.841Z,95523.00
2024-04-14T02:52:50.822Z,95521.00
2024-04-14T02:53:50.886Z,95521.00
2024-04-14T02:54:51.007Z,95518.00
2024-04-14T02:55:50.972Z,95520.00
2024-04-14T02:56:51.028Z,95522.00
2024-04-14T02:57:51.111Z,95519.00
2024-04-14T02:58:51.143Z,95520.00
2024-04-14T02:59:51.207Z,95519.00
2024-04-14T03:00:51.344Z,95518.00
2024-04-14T03:01:51.335Z,95518.00
2024-04-14T03:02:51.420Z,95517.00
2024-04-14T03:03:51.479Z,95517.00
2024-04-14T03:04:51.546Z,95519.00
2024-04-14T03:05:51.521Z,95519.00
2024-04-14T03:06:51.622Z,95518.00
2024-04-14T03:07:51.635Z,95515.00
2024-04-14T03:08:51.693Z,95514.00
2024-04-14T03:09:51.747Z,95515.00
2024-04-14T03:10:51.788Z,95515.00
2024-04-14T03:11:51.842Z,95512.00
2024-04-14T03:12:51.936Z,95512.00
2024-04-14T03:13:51.957Z,95512.00
2024-04-14T03:14:51.998Z,95514.00
2024-04-14T03:15:52.133Z,95512.00
2024-04-14T03:16:52.127Z,95510.00
2024-04-14T03:17:52.190Z,95512.00
2024-04-14T03:18:52.272Z,95511.00
2024-04-14T03:19:52.265Z,95511.00
2024-04-14T03:20:52.324Z,95512.00
2024-04-14T03:21:52.412Z,95509.00
2024-04-14T03:22:52.400Z,95510.00
2024-04-14T03:23:52.472Z,95508.00
2024-04-14T03:24:52.730Z,95507.00
2024-04-14T03:25:52.592Z,95507.00
2024-04-14T03:26:52.636Z,95508.00
2024-04-14T03:27:52.701Z,95507.00
2024-04-14T03:28:52.748Z,95503.00
2024-04-14T03:29:52.819Z,95504.00
2024-04-14T03:30:52.936Z,95503.00
2024-04-14T03:31:52.936Z,95502.00
2024-04-14T03:32:53.042Z,95500.00
2024-04-14T03:33:53.147Z,95500.00
2024-04-14T03:34:53.100Z,95498.00
2024-04-14T03:35:53.113Z,95498.00
2024-04-14T03:36:53.187Z,95499.00
2024-04-14T03:37:53.249Z,95497.00
2024-04-14T03:38:53.313Z,95498.00
2024-04-14T03:39:53.394Z,95501.00
2024-04-14T03:40:53.382Z,95499.00
2024-04-14T03:41:53.476Z,95498.00
2024-04-14T03:42:53.533Z,95498.00
2024-04-14T03:43:53.566Z,95499.00
2024-04-14T03:44:53.642Z,95501.00
2024-04-14T03:45:53.783Z,95502.00
2024-04-14T03:46:53.740Z,95502.00
2024-04-14T03:47:53.910Z,95503.00
2024-04-14T03:48:54.012Z,95502.00
2024-04-14T03:49:53.903Z,95500.00
2024-04-14T03:50:53.953Z,95498.00
2024-04-14T03:51:54.077Z,95496.00
2024-04-14T03:52:54.086Z,95499.00
2024-04-14T03:53:54.156Z,95499.00
2024-04-14T03:54:54.226Z,95498.00
2024-04-14T03:55:54.247Z,95499.00
2024-04-14T03:56:54.295Z,95497.00
2024-04-14T03:57:54.482Z,95497.00
2024-04-14T03:58:54.412Z,95499.00
2024-04-14T03:59:54.467Z,95498.00
2024-04-14T04:00:54.675Z,95497.00
2024-04-14T04:01:54.576Z,95495.00
2024-04-14T04:02:54.633Z,95496.00
2024-04-14T04:03:54.816Z,95495.00
2024-04-14T04:04:54.827Z,95495.00
2024-04-14T04:05:54.807Z,95497.00
2024-04-14T04:06:54.941Z,95499.00
2024-04-14T04:07:54.931Z,95498.00
2024-04-14T04:08:55.010Z,95499.00
2024-04-14T04:09:55.095Z,95499.00
2024-04-14T04:10:55.161Z,95502.00
2024-04-14T04:11:55.164Z,95498.00
2024-04-14T04:12:55.307Z,95497.00
2024-04-14T04:13:55.257Z,95496.00
2024-04-14T04:14:55.345Z,95497.00
2024-04-14T04:15:55.453Z,95499.00
2024-04-14T04:16:55.460Z,95499.00
2024-04-14T04:17:55.567Z,95499.00
2024-04-14T04:19:02.069Z,95500.00
2024-04-14T04:19:56.583Z,95501.00
2024-04-14T04:20:55.548Z,95502.00
2024-04-14T04:21:55.608Z,95503.00
2024-04-14T04:22:55.580Z,95505.00
2024-04-14T04:23:55.597Z,95505.00
2024-04-14T04:24:55.607Z,95505.00
2024-04-14T04:25:55.564Z,95509.00
2024-04-14T04:26:55.586Z,95508.00
2024-04-14T04:27:55.613Z,95506.00
2024-04-14T04:28:55.639Z,95507.00
2024-04-14T04:29:55.698Z,95507.00
2024-04-14T04:30:55.804Z,95508.00
2024-04-14T04:31:55.838Z,95507.00
2024-04-14T04:32:55.936Z,95507.00
2024-04-14T04:33:55.974Z,95506.00
2024-04-14T04:34:55.991Z,95508.00
2024-04-14T04:35:56.044Z,95508.00
2024-04-14T04:37:03.421Z,95504.00
2024-04-14T04:38:03.390Z,95506.00
2024-04-14T04:39:03.478Z,95503.00
2024-04-14T04:40:03.415Z,95504.00
2024-04-14T04:41:03.376Z,95506.00
2024-04-14T04:42:03.376Z,95504.00
2024-04-14T04:43:03.372Z,95503.00
2024-04-14T04:44:03.372Z,95503.00
2024-04-14T04:45:03.370Z,95501.00
2024-04-14T04:46:03.392Z,95500.00
2024-04-14T04:47:03.382Z,95500.00
2024-04-14T04:48:03.423Z,95500.00
2024-04-14T04:49:03.393Z,95499.00
2024-04-14T04:50:03.387Z,95500.00
2024-04-14T04:51:03.394Z,95498.00
2024-04-14T04:52:03.502Z,95495.00
2024-04-14T04:53:03.533Z,95497.00
2024-04-14T04:54:03.617Z,95498.00
2024-04-14T04:55:03.689Z,95497.00
2024-04-14T04:56:03.704Z,95498.00
2024-04-14T04:57:03.785Z,95496.00
2024-04-14T04:58:03.933Z,95498.00
2024-04-14T04:59:03.983Z,95500.00
2024-04-14T05:00:03.959Z,95500.00
2024-04-14T05:01:04.193Z,95501.00
2024-04-14T05:02:04.102Z,95499.00
2024-04-14T05:03:04.160Z,95499.00
2024-04-14T05:04:04.221Z,95500.00
2024-04-14T05:05:04.274Z,95497.00
2024-04-14T05:06:04.363Z,95498.00
2024-04-14T05:07:04.422Z,95497.00
2024-04-14T05:08:04.633Z,95499.00
2024-04-14T05:09:04.559Z,95498.00
2024-04-14T05:10:04.652Z,95496.00
2024-04-14T05:11:04.816Z,95497.00
2024-04-14T05:12:04.734Z,95499.00
2024-04-14T05:13:04.811Z,95497.00
2024-04-14T05:14:04.874Z,95498.00
2024-04-14T05:15:04.888Z,95500.00
2024-04-14T05:16:05.374Z,95500.00
2024-04-14T05:17:05.013Z,95501.00
2024-04-14T05:18:05.143Z,95502.00
2024-04-14T05:19:05.223Z,95503.00
2024-04-14T05:20:05.218Z,95501.00
2024-04-14T05:21:05.284Z,95501.00
2024-04-14T05:22:05.382Z,95503.00
2024-04-14T05:23:05.394Z,95507.00
2024-04-14T05:24:05.456Z,95507.00
2024-04-14T05:25:05.608Z,95508.00
2024-04-14T05:26:05.570Z,95508.00
2024-04-14T05:27:05.625Z,95506.00
2024-04-14T05:28:05.714Z,95506.00
2024-04-14T05:29:05.745Z,95506.00
2024-04-14T05:30:05.797Z,95506.00
2024-04-14T05:31:05.931Z,95504.00
2024-04-14T05:32:05.923Z,95503.00
2024-04-14T05:33:06.017Z,95505.00
2024-04-14T05:34:06.055Z,95502.00
2024-04-14T05:35:06.099Z,95498.00
2024-04-14T05:36:06.141Z,95496.00
2024-04-14T05:37:06.242Z,95497.00
2024-04-14T05:38:06.269Z,95497.00
2024-04-14T05:39:06.323Z,95496.00
2024-04-14T05:40:06.415Z,95496.00
2024-04-14T05:41:06.446Z,95495.00
2024-04-14T05:42:06.500Z,95494.00
2024-04-14T05:43:06.607Z,95494.00
2024-04-14T05:44:06.619Z,95499.00
2024-04-14T05:45:06.661Z,95496.00
2024-04-14T05:46:06.802Z,95500.00
2024-04-14T05:47:06.800Z,95499.00
2024-04-14T05:48:06.948Z,95499.00
2024-04-14T05:49:18.214Z,95496.00
2024-04-14T05:50:08.099Z,95496.00
2024-04-14T05:51:06.867Z,95494.00
2024-04-14T05:52:06.927Z,95494.00
2024-04-14T05:53:06.903Z,95493.00
2024-04-14T05:54:06.877Z,95495.00
2024-04-14T05:55:06.937Z,95497.00
2024-04-14T05:56:06.901Z,95498.00
2024-04-14T05:57:06.893Z,95497.00
2024-04-14T05:58:06.964Z,95497.00
2024-04-14T05:59:06.922Z,95498.00
2024-04-14T06:00:06.988Z,95499.00
2024-04-14T06:01:07.095Z,95501.00
2024-04-14T06:02:07.086Z,95500.00
2024-04-14T06:03:07.217Z,95499.00
2024-04-14T06:04:07.315Z,95500.00
2024-04-14T06:05:07.254Z,95500.00
2024-04-14T06:06:07.267Z,95500.00
2024-04-14T06:07:07.340Z,95499.00
2024-04-14T06:08:07.363Z,95499.00
2024-04-14T06:09:07.420Z,95496.00
2024-04-14T06:10:07.615Z,95496.00
2024-04-14T06:11:07.528Z,95491.00
2024-04-14T06:12:07.581Z,95496.00
2024-04-14T06:13:07.663Z,95496.00
2024-04-14T06:14:07.682Z,95493.00
2024-04-14T06:15:07.729Z,95494.00
2024-04-14T06:16:07.825Z,95496.00
2024-04-14T06:17:07.834Z,95493.00
2024-04-14T06:18:07.898Z,95492.00
2024-04-14T06:19:07.916Z,95491.00
2024-04-14T06:20:07.968Z,95493.00
2024-04-14T06:21:07.984Z,95490.00
2024-04-14T06:22:08.022Z,95489.00
2024-04-14T06:23:08.085Z,95490.00
2024-04-14T06:24:08.108Z,95486.00
2024-04-14T06:25:08.226Z,95487.00
2024-04-14T06:26:08.201Z,95487.00
2024-04-14T06:27:08.226Z,95488.00
2024-04-14T06:28:08.297Z,95483.00
2024-04-14T06:29:08.301Z,95484.00
2024-04-14T06:30:08.361Z,95483.00
2024-04-14T06:31:08.379Z,95482.00
2024-04-14T06:32:08.406Z,95481.00
2024-04-14T06:33:08.500Z,95478.00
2024-04-14T06:34:08.606Z,95476.00
2024-04-14T06:35:08.568Z,95475.00
2024-04-14T06:36:08.576Z,95473.00
2024-04-14T06:37:08.665Z,95474.00
2024-04-14T06:38:08.654Z,95475.00
2024-04-14T06:39:08.687Z,95474.00
2024-04-14T06:40:08.745Z,95472.00
2024-04-14T06:41:08.789Z,95470.00
2024-04-14T06:42:08.796Z,95469.00
2024-04-14T06:44:12.589Z,95473.00
2024-04-14T06:45:12.612Z,95471.00
2024-04-14T06:46:12.586Z,95470.00
2024-04-14T06:47:12.655Z,95468.00
2024-04-14T06:48:12.632Z,95465.00
2024-04-14T06:49:12.576Z,95465.00
2024-04-14T06:50:12.584Z,95464.00
2024-04-14T06:51:12.583Z,95466.00
2024-04-14T06:52:12.583Z,95463.00
2024-04-14T06:53:12.568Z,95461.00
2024-04-14T06:54:12.600Z,95460.00
2024-04-14T06:55:12.572Z,95460.00
2024-04-14T06:56:12.571Z,95460.00
2024-04-14T06:57:12.592Z,95459.00
2024-04-14T06:58:12.578Z,95459.00
2024-04-14T06:59:12.603Z,95458.00
2024-04-14T07:00:12.600Z,95456.00
2024-04-14T07:01:12.683Z,95457.00
2024-04-14T07:02:12.627Z,95459.00
2024-04-14T07:03:12.600Z,95458.00
2024-04-14T07:04:12.638Z,95458.00
2024-04-14T07:05:12.595Z,95457.00
2024-04-14T07:06:12.607Z,95455.00
2024-04-14T07:07:12.600Z,95456.00
2024-04-14T07:08:12.600Z,95456.00
2024-04-14T07:09:12.621Z,95453.00
2024-04-14T07:10:12.623Z,95453.00
2024-04-14T07:11:12.621Z,95451.00
2024-04-14T07:12:12.596Z,95450.00
2024-04-14T07:13:12.658Z,95448.00
2024-04-14T07:14:12.644Z,95449.00
2024-04-14T07:15:12.598Z,95446.00
2024-04-14T07:16:12.610Z,95440.00
2024-04-14T07:17:12.641Z,95440.00
2024-04-14T07:18:12.719Z,95439.00
2024-04-14T07:19:12.686Z,95439.00
2024-04-14T07:20:12.611Z,95439.00
2024-04-14T07:21:12.610Z,95438.00
2024-04-14T07:22:12.614Z,95439.00
2024-04-14T07:23:12.621Z,95436.00
2024-04-14T07:24:12.622Z,95437.00
2024-04-14T07:25:12.673Z,95436.00
2024-04-14T07:26:12.654Z,95435.00
2024-04-14T07:27:12.616Z,95432.00
2024-04-14T07:28:12.626Z,95429.00
2024-04-14T07:29:12.692Z,95431.00
2024-04-14T07:30:12.685Z,95430.00
2024-04-14T07:31:12.716Z,95429.00
2024-04-14T07:32:12.758Z,95428.00
2024-04-14T07:33:12.811Z,95426.00
2024-04-14T07:34:12.821Z,95426.00
2024-04-14T07:35:12.847Z,95423.00
2024-04-14T07:36:12.874Z,95422.00
2024-04-14T07:37:12.907Z,95420.00
2024-04-14T07:38:12.962Z,95421.00
2024-04-14T07:39:13.094Z,95417.00
2024-04-14T07:40:13.055Z,95415.00
2024-04-14T07:41:13.060Z,95415.00
2024-04-14T07:42:13.072Z,95413.00
2024-04-14T07:43:13.142Z,95412.00
2024-04-14T07:44:13.158Z,95409.00
2024-04-14T07:45:13.183Z,95406.00
2024-04-14T07:46:13.219Z,95405.00
2024-04-14T07:47:13.269Z,95404.00
2024-04-14T07:48:13.399Z,95401.00
2024-04-14T07:49:13.369Z,95400.00
2024-04-14T07:50:13.384Z,95398.00
2024-04-14T07:51:13.388Z,95397.00
2024-04-14T07:52:13.442Z,95398.00
2024-04-14T07:53:13.478Z,95396.00
2024-04-14T07:54:13.512Z,95395.00
2024-04-14T07:55:13.632Z,95395.00
2024-04-14T07:56:13.577Z,95393.00
2024-04-14T07:57:13.603Z,95391.00
2024-04-14T07:58:13.639Z,95388.00
2024-04-14T07:59:13.713Z,95385.00
2024-04-14T08:00:13.725Z,95384.00
2024-04-14T08:01:13.872Z,95381.00
2024-04-14T08:02:13.766Z,95381.00
2024-04-14T08:03:13.880Z,95379.00
2024-04-14T08:04:14.054Z,95380.00
2024-04-14T08:05:13.964Z,95378.00
2024-04-14T08:06:13.878Z,95377.00
2024-04-14T08:07:13.978Z,95378.00
2024-04-14T08:08:13.965Z,95380.00
2024-04-14T08:09:13.995Z,95377.00
2024-04-14T08:10:14.011Z,95376.00
2024-04-14T08:11:14.122Z,95373.00
2024-04-14T08:12:14.084Z,95371.00
2024-04-14T08:13:14.234Z,95368.00
2024-04-14T08:14:14.178Z,95367.00
2024-04-14T08:15:14.214Z,95365.00
2024-04-14T08:16:14.428Z,95365.00
2024-04-14T08:17:14.272Z,95363.00
2024-04-14T08:18:14.327Z,95360.00
2024-04-14T08:19:14.332Z,95358.00
2024-04-14T08:20:14.345Z,95357.00
2024-04-14T08:21:14.398Z,95353.00
2024-04-14T08:22:14.454Z,95355.00
2024-04-14T08:23:14.464Z,95353.00
2024-04-14T08:24:14.512Z,95352.00
2024-04-14T08:25:14.605Z,95350.00
2024-04-14T08:26:14.554Z,95349.00
2024-04-14T08:27:14.579Z,95351.00
2024-04-14T08:28:14.700Z,95346.00
2024-04-14T08:29:14.661Z,95345.00
2024-04-14T08:30:14.667Z,95343.00
2024-04-14T08:31:14.705Z,95339.00
2024-04-14T08:32:14.725Z,95336.00
2024-04-14T08:33:14.820Z,95336.00
2024-04-14T08:34:14.837Z,95337.00
2024-04-14T08:35:14.823Z,95336.00
2024-04-14T08:36:14.857Z,95334.00
2024-04-14T08:37:17.301Z,95336.00
2024-04-14T08:38:14.879Z,95334.00
2024-04-14T08:39:14.951Z,95331.00
2024-04-14T08:40:14.995Z,95332.00
2024-04-14T08:41:14.890Z,95334.00
2024-04-14T08:42:14.895Z,95334.00
2024-04-14T08:43:14.898Z,95329.00
2024-04-14T08:44:14.894Z,95328.00
2024-04-14T08:45:14.913Z,95327.00
2024-04-14T08:46:14.948Z,95326.00
2024-04-14T08:47:14.924Z,95326.00
2024-04-14T08:48:14.926Z,95326.00
2024-04-14T08:49:14.993Z,95326.00
2024-04-14T08:50:14.900Z,95325.00
2024-04-14T08:51:14.914Z,95323.00
2024-04-14T08:52:14.960Z,95320.00
2024-04-14T08:53:14.907Z,95320.00
2024-04-14T08:54:14.915Z,95317.00
2024-04-14T08:55:14.922Z,95315.00
2024-04-14T08:56:14.920Z,95314.00
2024-04-14T08:57:14.965Z,95310.00
2024-04-14T08:58:15.011Z,95308.00
2024-04-14T08:59:14.916Z,95305.00
2024-04-14T09:00:14.943Z,95305.00
2024-04-14T09:01:15.004Z,95303.00
2024-04-14T09:02:14.995Z,95302.00
2024-04-14T09:03:14.972Z,95300.00
2024-04-14T09:04:14.979Z,95295.00
2024-04-14T09:05:14.927Z,95293.00
2024-04-14T09:06:14.965Z,95293.00
2024-04-14T09:07:15.003Z,95292.00
2024-04-14T09:08:14.919Z,95291.00
2024-04-14T09:09:14.975Z,95290.00
2024-04-14T09:10:14.925Z,95290.00
2024-04-14T09:11:14.995Z,95288.00
2024-04-14T09:12:14.951Z,95288.00
2024-04-14T09:13:14.999Z,95288.00
2024-04-14T09:14:14.997Z,95287.00
2024-04-14T09:15:14.964Z,95286.00
2024-04-14T09:16:14.999Z,95286.00
2024-04-14T09:17:14.980Z,95285.00
2024-04-14T09:18:14.932Z,95284.00
2024-04-14T09:19:14.950Z,95283.00
2024-04-14T09:20:14.954Z,95282.00
2024-04-14T09:21:14.937Z,95277.00
2024-04-14T09:22:14.968Z,95279.00
2024-04-14T09:23:14.949Z,95274.00
2024-04-14T09:24:14.939Z,95273.00
2024-04-14T09:25:17.627Z,95272.00
2024-04-14T09:26:14.932Z,95269.00
2024-04-14T09:27:14.957Z,95265.00
2024-04-14T09:28:14.951Z,95261.00
2024-04-14T09:29:14.954Z,95261.00
2024-04-14T09:30:14.967Z,95257.00
2024-04-14T09:31:14.957Z,95258.00
2024-04-14T09:32:14.983Z,95257.00
2024-04-14T09:33:15.025Z,95253.00
2024-04-14T09:34:15.062Z,95254.00
2024-04-14T09:35:14.965Z,95254.00
2024-04-14T09:36:15.014Z,95252.00
2024-04-14T09:37:14.971Z,95251.00
2024-04-14T09:38:14.975Z,95247.00
2024-04-14T09:39:14.977Z,95245.00
2024-04-14T09:40:15.012Z,95242.00
2024-04-14T09:41:14.974Z,95241.00
2024-04-14T09:42:14.984Z,95240.00
2024-04-14T09:43:14.981Z,95239.00
2024-04-14T09:44:14.990Z,95236.00
2024-04-14T09:45:14.972Z,95232.00
2024-04-14T09:46:15.017Z,95232.00
2024-04-14T09:47:15.071Z,95229.00
2024-04-14T09:48:15.016Z,95223.00
2024-04-14T09:49:15.063Z,95222.00
2024-04-14T09:50:15.100Z,95221.00
2024-04-14T09:51:15.165Z,95219.00
2024-04-14T09:52:15.243Z,95217.00
2024-04-14T09:53:15.310Z,95216.00
2024-04-14T09:54:15.422Z,95217.00
2024-04-14T09:55:15.465Z,95213.00
2024-04-14T09:56:15.563Z,95214.00
2024-04-14T09:57:15.607Z,95211.00
2024-04-14T09:58:15.667Z,95211.00
2024-04-14T09:59:15.739Z,95210.00
2024-04-14T10:00:15.804Z,95208.00
2024-04-14T10:01:15.967Z,95206.00
2024-04-14T10:02:15.978Z,95202.00
2024-04-14T10:03:16.024Z,95205.00
2024-04-14T10:04:16.107Z,95200.00
2024-04-14T10:05:16.106Z,95197.00
2024-04-14T10:06:16.190Z,95198.00
2024-04-14T10:07:16.243Z,95194.00
2024-04-14T10:08:18.632Z,95194.00
2024-04-14T10:09:16.283Z,95195.00
2024-04-14T10:10:16.395Z,95193.00
2024-04-14T10:11:16.341Z,95192.00
2024-04-14T10:12:16.302Z,95192.00
2024-04-14T10:13:16.291Z,95189.00
2024-04-14T10:14:16.361Z,95187.00
2024-04-14T10:15:16.298Z,95181.00
2024-04-14T10:16:16.437Z,95181.00
2024-04-14T10:17:16.345Z,95175.00
2024-04-14T10:18:16.311Z,95173.00
2024-04-14T10:19:16.376Z,95172.00
2024-04-14T10:20:16.346Z,95168.00
2024-04-14T10:21:16.376Z,95167.00
2024-04-14T10:22:16.364Z,95163.00
2024-04-14T10:23:16.389Z,95160.00
2024-04-14T10:24:16.332Z,95159.00
2024-04-14T10:25:16.344Z,95154.00
2024-04-14T10:26:16.332Z,95151.00
2024-04-14T10:27:16.331Z,95152.00
2024-04-14T10:28:16.323Z,95151.00
2024-04-14T10:29:16.334Z,95148.00
2024-04-14T10:30:16.333Z,95146.00
2024-04-14T10:31:16.337Z,95145.00
2024-04-14T10:32:16.321Z,95143.00
2024-04-14T10:33:16.358Z,95141.00
2024-04-14T10:34:16.477Z,95138.00
2024-04-14T10:35:16.371Z,95137.00
2024-04-14T10:36:16.401Z,95134.00
2024-04-14T10:37:16.385Z,95133.00
2024-04-14T10:38:16.339Z,95130.00
2024-04-14T10:39:16.353Z,95129.00
2024-04-14T10:40:16.322Z,95124.00
2024-04-14T10:41:16.373Z,95127.00
2024-04-14T10:42:16.476Z,95122.00
2024-04-14T10:43:16.328Z,95122.00
2024-04-14T10:44:16.354Z,95119.00
2024-04-14T10:45:16.349Z,95114.00
2024-04-14T10:46:16.491Z,95112.00
2024-04-14T10:47:16.516Z,95114.00
2024-04-14T10:48:16.350Z,95111.00
2024-04-14T10:49:16.409Z,95109.00
2024-04-14T10:50:16.356Z,95106.00
2024-04-14T10:51:16.361Z,95103.00
2024-04-14T10:52:16.365Z,95102.00
2024-04-14T10:53:16.361Z,95100.00
2024-04-14T10:54:16.388Z,95100.00
2024-04-14T10:55:16.380Z,95098.00
2024-04-14T10:56:16.398Z,95095.00
2024-04-14T10:57:16.364Z,95090.00
2024-04-14T10:58:16.371Z,95089.00
2024-04-14T10:59:16.399Z,95089.00
2024-04-14T11:00:16.434Z,95087.00
2024-04-14T11:01:16.571Z,95085.00
2024-04-14T11:02:16.371Z,95082.00
2024-04-14T11:03:16.418Z,95079.00
2024-04-14T11:04:16.633Z,95077.00
2024-04-14T11:05:16.389Z,95076.00
2024-04-14T11:06:16.386Z,95076.00
2024-04-14T11:07:16.432Z,95073.00
2024-04-14T11:08:16.453Z,95073.00
2024-04-14T11:09:16.490Z,95069.00
2024-04-14T11:10:16.527Z,95069.00
2024-04-14T11:11:16.562Z,95065.00
2024-04-14T11:12:16.551Z,95059.00
2024-04-14T11:13:16.572Z,95055.00
2024-04-14T11:14:16.584Z,95054.00
2024-04-14T11:15:16.623Z,95052.00
2024-04-14T11:16:16.738Z,95054.00
2024-04-14T11:17:16.655Z,95052.00
2024-04-14T11:18:16.674Z,95049.00
2024-04-14T11:19:16.731Z,95047.00
2024-04-14T11:20:16.729Z,95046.00
2024-04-14T11:21:16.683Z,95044.00
2024-04-14T11:22:16.752Z,95042.00
2024-04-14T11:23:16.752Z,95041.00
2024-04-14T11:24:16.796Z,95038.00
2024-04-14T11:25:16.787Z,95035.00
2024-04-14T11:26:16.779Z,95033.00
2024-04-14T11:27:16.778Z,95031.00
2024-04-14T11:28:16.838Z,95029.00
2024-04-14T11:29:16.843Z,95027.00
2024-04-14T11:30:16.835Z,95024.00
2024-04-14T11:31:16.977Z,95023.00
2024-04-14T11:32:16.838Z,95020.00
2024-04-14T11:33:16.967Z,95018.00
2024-04-14T11:34:16.916Z,95018.00
2024-04-14T11:35:16.928Z,95013.00
2024-04-14T11:36:16.908Z,95009.00
2024-04-14T11:37:16.909Z,95007.00
2024-04-14T11:38:16.934Z,95004.00
2024-04-14T11:39:16.936Z,95004.00
2024-04-14T11:40:16.987Z,95002.00
2024-04-14T11:41:16.962Z,95004.00
2024-04-14T11:42:16.976Z,95001.00
2024-04-14T11:43:16.993Z,95000.00
2024-04-14T11:44:16.998Z,94996.00
2024-04-14T11:45:17.016Z,94997.00
2024-04-14T11:46:17.087Z,94994.00